SAOU/LUQ METAR and TAF weather

Enter ICAO airport designator
Station Type Date Time Source
SAOU METAR 2019/06/17 13:18 UTC NOAA

SAOU 171318Z 32004KT 9999 OVC012 04/04 Q1020 RMK ESTIMATED WIND


Station Type Date Time Source
SAOU Decoded METAR 2019/06/17 13:18 UTC NOAA

San Luis Aerodrome, Argentina (SAOU) 33-16S 066-21W 713M
Jun 17, 2019 - 09:18 AM EDT / 2019.06.17 1318 UTC
Wind: from the NW (320 degrees) at 5 MPH (4 KT):0
Visibility: greater than 7 mile(s):0
Sky conditions: overcast
Temperature: 39 F (4 C)
Dew Point: 39 F (4 C)
Relative Humidity: 100%
Pressure (altimeter): 30.12 in. Hg (1020 hPa)
ob: SAOU 171318Z 32004KT 9999 OVC012 04/04 Q1020 RMK ESTIMATED WIND
cycle: 13

Station Type Date Time Source
SAOU TAF 2019/06/14 06:00 UTC NOAA

TAF SAOU 140500Z 1406/1506 14005KT 8000 BR FEW020 OVC030 TX12/1419ZTN05/1409Z
BECMG 1419/1421 18010KT 6000 DZ FEW015 OVC020 SCT030

Example: see airport list